Terminal Aerodrome Forecast
Issued by NWS Charleston, WV

Home | Current Version | Previous Version | Text Only | Print | Product List | Glossary On
Versions: 1 2 3 4 5 6 7 8 9 10 11 12 13 14 15 16 17 18 19 20 21 22 23 24 25 26 27 28 29
000
FTUS41 KRLX 040204 AAA
TAFCRW
TAF AMD
KCRW 040204Z 0402/0424 00000KT 4SM SHRA BR VCTS BKN025CB BKN040
      TEMPO 0402/0403 1SM BR SCT001
     FM040500 00000KT 4SM BR SCT008 OVC015
     FM040600 00000KT 2SM BR OVC008
     FM040800 00000KT 1SM BR OVC003
     FM041200 00000KT 3SM BR OVC006
     FM041400 32003KT P6SM OVC012
     FM041800 30004KT P6SM BKN035=

USA.gov is the U.S. government's official web portal to all federal, state and local government web resources and services.